CRF5 weather

Saskatoon/Richter Field Airport
Saskatoon, Saskatchewan, Canada

Public forecast

Using degrees Celsius for public forecast. Weather courtesy of forecast.io.

METAR (pilot weather report)

Closest report is Saskatoon John G. Diefenbaker International Airport, 6.6 nm (12.2 km) S. Retrieved 2019/05/23 02:00 UTC (39 minutes ago):

CYXE 230200Z 04009KT 15SM BKN120 21/M01 A2999 RMK AC5 SLP163 DENSITY ALT 2700FT

TAF (pilot weather forecast)

Forecast is more than 12 hours old.

Closest forecast is Saskatoon John G. Diefenbaker International Airport, 6.6 nm (12.2 km) S. Retrieved 2019/05/22 00:42 UTC (1 day ago):

TAF TAF CYXE 222338Z 2300/2324 06010G20KT P6SM BKN100 BECMG 2303/2305 06008KT FM231000 10006KT P6SM SKC BECMG 2311/2313 16008KT FM231500 17012KT P6SM FEW100 RMK NXT FCST BY 230600Z